Time;durP1;ratioP1;P1;durP2;ratioP2;P2;SDS_P1;SDS_P2;PMS_P1;PMS_P2;Temp;Humidity;BMP_temperature;BMP_pressure;BME280_temperature;BME280_humidity;BME280_pressure;Samples;Min_cycle;Max_cycle;Signal;HPM_P1;HPM_P2
2023/06/11 00:01:42;;;;;;;10.30;9.60;;;20.70;1.00;;;;;;5097044;28;20529;-52
2023/06/11 00:04:12;;;;;;;10.80;9.73;;;20.60;1.00;;;;;;5097239;28;20754;-49
2023/06/11 00:06:39;;;;;;;10.10;9.20;;;20.60;1.00;;;;;;5097449;28;20455;-53
2023/06/11 00:09:08;;;;;;;9.90;9.03;;;20.70;1.00;;;;;;5097099;28;20559;-49
2023/06/11 00:11:41;;;;;;;9.93;9.10;;;20.70;1.00;;;;;;5096925;28;20460;-52
2023/06/11 00:14:09;;;;;;;9.53;8.83;;;20.70;1.00;;;;;;5097264;28;20903;-47
2023/06/11 00:16:36;;;;;;;10.07;9.27;;;20.70;1.00;;;;;;5096855;28;20468;-49
2023/06/11 00:19:04;;;;;;;9.33;8.57;;;20.60;1.00;;;;;;5097032;28;20464;-48
2023/06/11 00:21:32;;;;;;;9.73;8.93;;;20.60;1.00;;;;;;5110770;28;20767;-51
2023/06/11 00:24:00;;;;;;;9.20;8.40;;;20.50;1.00;;;;;;5116867;28;20498;-50
2023/06/11 00:26:28;;;;;;;9.50;8.80;;;20.60;1.00;;;;;;5116741;28;20465;-49
2023/06/11 00:28:56;;;;;;;9.90;9.10;;;20.50;1.00;;;;;;5117542;28;20459;-50
2023/06/11 00:31:23;;;;;;;9.30;8.33;;;20.50;1.00;;;;;;5117304;28;20898;-55
2023/06/11 00:33:50;;;;;;;9.17;8.37;;;20.50;1.00;;;;;;5120381;28;20455;-50
2023/06/11 00:36:17;;;;;;;9.53;8.63;;;20.50;1.00;;;;;;5121005;28;20482;-51
2023/06/11 00:38:46;;;;;;;10.13;9.20;;;20.40;1.00;;;;;;5121036;28;20884;-52
2023/06/11 00:41:13;;;;;;;9.57;8.77;;;20.30;1.00;;;;;;5121210;28;20483;-51
2023/06/11 00:43:41;;;;;;;10.00;9.17;;;20.30;1.00;;;;;;5120569;28;20491;-55
2023/06/11 00:46:10;;;;;;;9.00;8.30;;;20.30;1.00;;;;;;5121220;28;20459;-54
2023/06/11 00:48:38;;;;;;;11.33;9.40;;;20.30;23.40;;;;;;5120823;28;20463;-52
2023/06/11 00:51:06;;;;;;;9.73;8.93;;;20.30;19.40;;;;;;5120951;28;20463;-51
2023/06/11 00:53:33;;;;;;;9.63;8.73;;;20.30;99.90;;;;;;5120797;28;20484;-50
2023/06/11 00:56:00;;;;;;;9.47;8.63;;;20.20;99.90;;;;;;5119495;28;20923;-50
2023/06/11 00:58:29;;;;;;;9.67;8.97;;;20.20;76.60;;;;;;5118982;28;20467;-53
2023/06/11 01:01:00;;;;;;;9.70;9.00;;;20.10;55.00;;;;;;5118779;28;20452;-50
2023/06/11 01:03:28;;;;;;;10.00;9.20;;;20.10;98.40;;;;;;5118299;28;20547;-48
2023/06/11 01:06:11;;;;;;;9.10;8.40;;;20.10;97.70;;;;;;5118540;28;20538;-51
2023/06/11 01:08:40;;;;;;;8.27;7.67;;;20.00;99.90;;;;;;5118993;28;20472;-50
2023/06/11 01:11:13;;;;;;;9.77;9.00;;;20.00;99.90;;;;;;5118867;28;20516;-53
2023/06/11 01:13:41;;;;;;;10.60;9.70;;;20.00;99.90;;;;;;5118984;28;20455;-48
2023/06/11 01:16:15;;;;;;;9.43;8.77;;;20.00;99.90;;;;;;5118387;28;20516;-54
2023/06/11 01:19:08;;;;;;;10.30;9.40;;;19.90;99.90;;;;;;5118823;28;20565;-52
2023/06/11 01:21:43;;;;;;;9.87;9.07;;;19.90;99.90;;;;;;5118551;28;20746;-50
2023/06/11 01:24:18;;;;;;;9.40;8.60;;;19.80;99.90;;;;;;5118174;28;20490;-54
2023/06/11 01:27:09;;;;;;;10.30;9.60;;;19.80;99.90;;;;;;5118711;28;20462;-49
2023/06/11 01:29:45;;;;;;;11.27;10.17;;;19.70;99.90;;;;;;5118703;28;20758;-49
2023/06/11 01:32:13;;;;;;;10.50;9.60;;;19.60;1.00;;;;;;5119562;28;20557;-51
2023/06/11 01:34:42;;;;;;;10.03;9.23;;;19.50;1.00;;;;;;5119942;28;20481;-50
2023/06/11 01:37:11;;;;;;;10.73;9.93;;;19.40;1.00;;;;;;5120211;28;20463;-51
2023/06/11 01:39:39;;;;;;;9.47;8.67;;;19.20;1.00;;;;;;5119420;28;20558;-49
2023/06/11 01:42:08;;;;;;;9.90;9.00;;;19.00;1.00;;;;;;5119649;28;20550;-52
2023/06/11 01:44:35;;;;;;;9.27;8.57;;;19.00;1.00;;;;;;5118660;28;20960;-52
2023/06/11 01:47:03;;;;;;;10.83;9.93;;;19.20;1.00;;;;;;5119699;28;20466;-49
2023/06/11 01:49:31;;;;;;;9.60;8.80;;;19.30;1.00;;;;;;5119684;28;20464;-50
2023/06/11 01:51:58;;;;;;;9.70;8.90;;;19.40;99.90;;;;;;5119257;28;20506;-53
2023/06/11 01:54:25;;;;;;;10.73;9.70;;;19.40;99.90;;;;;;5119360;28;20460;-52
2023/06/11 01:56:52;;;;;;;9.17;8.27;;;19.40;99.90;;;;;;5119687;28;20471;-52
2023/06/11 01:59:21;;;;;;;10.60;9.80;;;19.50;99.90;;;;;;5118814;28;20467;-51
2023/06/11 02:01:53;;;;;;;9.97;9.07;;;19.50;99.90;;;;;;5119161;28;20491;-50
2023/06/11 02:04:22;;;;;;;9.70;8.93;;;19.50;99.90;;;;;;5119365;28;20521;-52
2023/06/11 02:06:50;;;;;;;9.70;8.90;;;19.50;99.90;;;;;;5119304;28;20460;-53
2023/06/11 02:09:17;;;;;;;9.67;8.97;;;19.50;99.90;;;;;;5118883;28;20758;-56
2023/06/11 02:11:44;;;;;;;10.47;9.47;;;19.60;99.90;;;;;;5119462;28;20456;-55
2023/06/11 02:14:12;;;;;;;10.00;9.10;;;19.60;99.90;;;;;;5118838;28;20459;-51
2023/06/11 02:16:39;;;;;;;10.80;9.10;;;19.60;99.90;;;;;;5119156;28;20452;-53
2023/06/11 02:19:07;;;;;;;9.93;9.20;;;19.70;99.90;;;;;;5119366;28;20794;-52
2023/06/11 02:21:35;;;;;;;9.90;9.10;;;19.70;99.90;;;;;;5118802;28;20459;-55
2023/06/11 02:24:02;;;;;;;10.33;9.33;;;19.60;99.90;;;;;;5119019;28;21011;-53
2023/06/11 02:26:29;;;;;;;10.07;9.13;;;19.60;99.90;;;;;;5118854;28;20885;-53
2023/06/11 02:28:57;;;;;;;11.63;10.20;;;19.60;99.90;;;;;;5118585;28;20550;-54
2023/06/11 02:31:24;;;;;;;9.73;8.93;;;19.70;99.90;;;;;;5118811;28;20898;-53
2023/06/11 02:33:51;;;;;;;9.70;8.70;;;19.70;99.90;;;;;;5118574;28;20554;-54
2023/06/11 02:36:18;;;;;;;10.90;10.00;;;19.80;99.90;;;;;;5118905;28;20876;-55
2023/06/11 02:38:47;;;;;;;10.27;9.47;;;19.80;99.90;;;;;;5118664;28;20477;-53
2023/06/11 02:41:15;;;;;;;10.10;9.23;;;19.70;99.90;;;;;;5118672;28;20478;-55
2023/06/11 02:43:42;;;;;;;9.83;8.97;;;19.70;99.90;;;;;;5118078;28;20487;-55
2023/06/11 02:46:09;;;;;;;9.53;8.63;;;19.80;99.90;;;;;;5117989;28;20464;-60
2023/06/11 02:48:37;;;;;;;11.10;10.30;;;19.80;99.90;;;;;;5118492;28;20888;-55
2023/06/11 02:51:04;;;;;;;10.27;9.20;;;19.80;99.90;;;;;;5118714;28;20506;-54
2023/06/11 02:53:31;;;;;;;10.40;9.30;;;19.80;99.90;;;;;;5118194;28;20459;-53
2023/06/11 02:56:00;;;;;;;10.07;9.20;;;19.80;99.90;;;;;;5117897;28;20591;-60
2023/06/11 02:58:27;;;;;;;9.97;8.87;;;19.80;99.90;;;;;;5118266;28;20470;-51
2023/06/11 03:00:54;;;;;;;9.60;8.80;;;19.80;99.90;;;;;;5118329;28;20488;-48
2023/06/11 03:03:21;;;;;;;10.43;9.43;;;19.80;99.90;;;;;;5117539;28;20491;-53
2023/06/11 03:05:48;;;;;;;9.90;9.10;;;19.80;99.90;;;;;;5118069;28;20527;-52
2023/06/11 03:08:16;;;;;;;9.20;8.50;;;19.80;99.90;;;;;;5117897;28;20459;-54
2023/06/11 03:10:43;;;;;;;9.53;8.73;;;19.80;99.90;;;;;;5118124;28;20459;-60
2023/06/11 03:13:12;;;;;;;10.67;9.87;;;19.80;99.90;;;;;;5118048;28;20753;-51
2023/06/11 03:15:39;;;;;;;9.80;8.83;;;19.90;99.90;;;;;;5118046;28;20466;-47
2023/06/11 03:18:06;;;;;;;10.50;9.70;;;19.90;99.90;;;;;;5118101;28;20463;-50
2023/06/11 03:20:33;;;;;;;10.00;9.07;;;20.00;99.90;;;;;;5118228;28;20459;-53
2023/06/11 03:23:00;;;;;;;10.20;9.40;;;19.90;99.90;;;;;;5117949;28;20516;-48
2023/06/11 03:25:28;;;;;;;10.03;9.23;;;19.90;99.90;;;;;;5116248;28;20479;-50
2023/06/11 03:27:55;;;;;;;10.60;8.20;;;20.00;99.90;;;;;;5117851;28;20466;-55
2023/06/11 03:30:23;;;;;;;10.07;9.33;;;20.00;99.90;;;;;;5117432;28;20463;-54
2023/06/11 03:32:50;;;;;;;10.53;9.43;;;20.00;99.90;;;;;;5117481;28;20470;-52
2023/06/11 03:35:18;;;;;;;9.40;8.47;;;20.00;99.90;;;;;;5117181;28;20455;-52
2023/06/11 03:37:45;;;;;;;10.70;9.63;;;20.00;99.90;;;;;;5117624;28;20477;-49
2023/06/11 03:40:12;;;;;;;10.17;9.27;;;20.00;99.90;;;;;;5117425;28;20470;-54
2023/06/11 03:42:40;;;;;;;9.83;9.03;;;20.00;99.90;;;;;;5117721;28;20459;-53
2023/06/11 03:45:08;;;;;;;9.33;8.60;;;20.00;99.90;;;;;;5117912;28;20548;-52
2023/06/11 03:47:37;;;;;;;10.00;9.20;;;20.00;1.00;;;;;;5117247;28;20459;-50
2023/06/11 03:50:04;;;;;;;9.97;9.10;;;20.00;99.90;;;;;;5117476;28;20466;-50
2023/06/11 03:52:32;;;;;;;9.70;8.90;;;20.00;99.90;;;;;;5117040;28;20829;-50
2023/06/11 03:54:59;;;;;;;9.73;9.03;;;20.00;99.90;;;;;;5117481;28;20462;-49
2023/06/11 03:57:26;;;;;;;10.10;9.30;;;20.00;99.90;;;;;;5117842;28;20474;-54
2023/06/11 03:59:53;;;;;;;9.97;9.17;;;20.00;1.00;;;;;;5116138;28;20552;-57
2023/06/11 04:02:20;;;;;;;10.23;9.00;;;20.00;99.90;;;;;;5117279;28;20505;-54
2023/06/11 04:04:50;;;;;;;10.37;9.37;;;20.10;1.00;;;;;;5117355;28;20495;-51
2023/06/11 04:07:17;;;;;;;10.40;9.50;;;20.10;1.00;;;;;;5118138;28;20463;-55
2023/06/11 04:09:44;;;;;;;9.73;8.93;;;20.10;1.00;;;;;;5121198;28;20465;-57
2023/06/11 04:12:12;;;;;;;10.03;9.27;;;20.20;1.00;;;;;;5121673;28;20803;-53
2023/06/11 04:14:39;;;;;;;11.87;10.00;;;20.20;1.00;;;;;;5121502;28;20513;-53
2023/06/11 04:17:06;;;;;;;10.47;9.53;;;20.20;1.00;;;;;;5121020;28;20466;-58
2023/06/11 04:19:33;;;;;;;9.93;9.10;;;20.20;1.00;;;;;;5121460;28;20463;-55
2023/06/11 04:22:02;;;;;;;9.43;8.53;;;20.20;1.00;;;;;;5121245;28;20456;-50
2023/06/11 04:24:29;;;;;;;10.37;9.37;;;20.20;1.00;;;;;;5121207;28;20495;-60
2023/06/11 04:26:56;;;;;;;9.00;8.20;;;20.30;1.00;;;;;;5121306;28;20899;-56
2023/06/11 04:29:29;;;;;;;9.77;8.87;;;20.30;1.00;;;;;;5121499;28;20470;-56
2023/06/11 04:31:56;;;;;;;10.77;9.80;;;20.30;1.00;;;;;;5121259;28;20502;-55
2023/06/11 04:34:29;;;;;;;10.60;9.70;;;20.30;1.00;;;;;;5121154;28;20563;-50
2023/06/11 04:36:56;;;;;;;9.63;8.83;;;20.40;1.00;;;;;;5121088;28;20892;-50
2023/06/11 04:39:25;;;;;;;9.20;8.60;;;20.40;1.00;;;;;;5120721;28;20459;-52
2023/06/11 04:41:53;;;;;;;9.60;8.90;;;20.40;99.90;;;;;;5120558;28;20512;-52
2023/06/11 04:44:20;;;;;;;9.80;9.00;;;20.50;1.00;;;;;;5120691;28;20491;-51
2023/06/11 04:46:48;;;;;;;10.40;9.50;;;20.50;1.00;;;;;;5121116;28;20473;-58
2023/06/11 04:49:20;;;;;;;10.00;9.10;;;20.50;1.00;;;;;;5120442;28;20884;-54
2023/06/11 04:51:48;;;;;;;9.97;9.27;;;20.50;1.00;;;;;;5120617;28;20503;-53
2023/06/11 04:54:17;;;;;;;10.00;9.23;;;20.60;1.00;;;;;;5120756;28;20920;-48
2023/06/11 04:56:46;;;;;;;10.90;9.90;;;20.60;1.00;;;;;;5120738;28;20880;-52
2023/06/11 04:59:13;;;;;;;9.60;8.80;;;20.60;1.00;;;;;;5120728;28;20459;-54
2023/06/11 05:01:46;;;;;;;10.00;9.20;;;20.70;99.90;;;;;;5120225;28;20876;-53
2023/06/11 05:04:14;;;;;;;10.67;9.67;;;20.70;99.90;;;;;;5120442;27;20810;-56
2023/06/11 05:06:44;;;;;;;10.00;9.20;;;20.70;1.00;;;;;;5120500;28;20514;-55
2023/06/11 05:09:13;;;;;;;10.30;9.50;;;20.80;1.00;;;;;;5120861;28;20456;-54
2023/06/11 05:11:41;;;;;;;9.97;9.07;;;20.80;1.00;;;;;;5120350;28;20825;-54
2023/06/11 05:14:11;;;;;;;9.43;8.70;;;20.90;1.00;;;;;;5120451;28;20467;-54
2023/06/11 05:16:38;;;;;;;10.57;9.67;;;21.00;1.00;;;;;;5120323;28;20463;-58
2023/06/11 05:19:06;;;;;;;10.13;9.33;;;21.00;1.00;;;;;;5118931;28;20752;-53
2023/06/11 05:21:34;;;;;;;10.57;9.67;;;21.00;1.00;;;;;;5120160;28;20465;-55
2023/06/11 05:24:07;;;;;;;9.40;8.80;;;21.10;1.00;;;;;;5119837;28;20492;-49
2023/06/11 05:26:35;;;;;;;9.67;8.93;;;21.20;99.90;;;;;;5119642;28;20946;-54
2023/06/11 05:29:03;;;;;;;10.47;9.57;;;21.20;99.90;;;;;;5120177;28;20455;-58
2023/06/11 05:31:35;;;;;;;10.47;9.77;;;21.40;99.90;;;;;;5119072;28;20459;-53
2023/06/11 05:34:02;;;;;;;10.23;9.30;;;21.50;99.90;;;;;;5119711;28;20562;-52
2023/06/11 05:36:30;;;;;;;9.80;8.80;;;21.60;99.90;;;;;;5119642;28;20455;-53
2023/06/11 05:38:57;;;;;;;9.70;9.00;;;21.70;99.90;;;;;;5119441;28;20460;-54
2023/06/11 05:41:24;;;;;;;10.13;9.23;;;21.80;99.90;;;;;;5119827;28;20557;-55
2023/06/11 05:43:51;;;;;;;10.27;9.47;;;22.00;99.90;;;;;;5119573;28;20984;-58
2023/06/11 05:46:18;;;;;;;10.07;9.27;;;22.20;99.90;;;;;;5119539;28;20491;-56
2023/06/11 05:48:47;;;;;;;8.93;8.30;;;22.40;99.90;;;;;;5119173;28;20459;-58
2023/06/11 05:51:14;;;;;;;10.43;9.40;;;22.70;99.90;;;;;;5119964;28;20455;-57
2023/06/11 05:53:41;;;;;;;10.87;10.07;;;22.90;99.90;;;;;;5119442;28;20459;-57
2023/06/11 05:56:08;;;;;;;8.83;8.13;;;23.00;87.70;;;;;;5119490;28;20463;-57
2023/06/11 05:58:35;;;;;;;8.53;7.93;;;23.30;13.30;;;;;;5119719;28;20460;-61
2023/06/11 06:01:04;;;;;;;8.50;7.77;;;23.40;1.00;;;;;;5119395;28;20770;-57
2023/06/11 06:03:31;;;;;;;8.87;8.17;;;23.60;1.00;;;;;;5118532;28;20522;-56
2023/06/11 06:06:01;;;;;;;10.40;9.00;;;23.70;1.00;;;;;;5119461;28;20491;-58
2023/06/11 06:08:29;;;;;;;8.73;7.87;;;24.00;1.00;;;;;;5119337;28;20923;-56
2023/06/11 06:10:56;;;;;;;9.40;8.60;;;24.10;1.00;;;;;;5119175;28;20459;-57
2023/06/11 06:13:25;;;;;;;8.90;8.20;;;24.40;1.00;;;;;;5118883;28;20757;-58
2023/06/11 06:15:53;;;;;;;9.70;8.83;;;24.50;1.00;;;;;;5118949;28;20504;-56
2023/06/11 06:18:21;;;;;;;9.10;8.40;;;24.50;99.90;;;;;;5119147;28;20892;-56
2023/06/11 06:20:48;;;;;;;9.10;8.50;;;24.60;1.00;;;;;;5118536;28;20463;-59
2023/06/11 06:23:17;;;;;;;8.07;7.47;;;24.80;99.90;;;;;;5118414;28;20463;-60
2023/06/11 06:25:45;;;;;;;9.13;8.30;;;24.80;99.90;;;;;;5118799;28;20492;-47
2023/06/11 06:28:12;;;;;;;9.00;8.40;;;24.90;99.90;;;;;;5119002;28;20463;-57
2023/06/11 06:30:39;;;;;;;9.30;8.53;;;25.00;99.90;;;;;;5118235;28;20904;-61
2023/06/11 06:33:06;;;;;;;8.93;8.20;;;25.30;99.90;;;;;;5118728;28;20888;-58
2023/06/11 06:35:34;;;;;;;8.90;8.20;;;25.20;99.90;;;;;;5118336;28;20451;-58
2023/06/11 06:38:01;;;;;;;10.93;8.67;;;25.20;99.90;;;;;;5118854;28;20455;-61
2023/06/11 06:40:31;;;;;;;8.80;8.20;;;25.20;99.90;;;;;;5118362;28;20447;-59
2023/06/11 06:42:58;;;;;;;8.93;8.10;;;25.30;99.90;;;;;;5118621;28;20738;-61
2023/06/11 06:45:25;;;;;;;7.83;7.23;;;25.50;99.90;;;;;;5117759;28;20493;-59
2023/06/11 06:47:53;;;;;;;9.00;8.20;;;25.60;99.90;;;;;;5118449;28;20520;-60
2023/06/11 06:50:23;;;;;;;9.10;7.93;;;25.70;99.90;;;;;;5118721;28;20460;-58
2023/06/11 06:52:50;;;;;;;8.33;7.63;;;25.70;99.90;;;;;;5118646;28;20459;-60
2023/06/11 06:55:17;;;;;;;8.07;7.37;;;25.70;99.90;;;;;;5118161;28;20516;-62
2023/06/11 06:57:46;;;;;;;9.33;8.47;;;25.80;99.90;;;;;;5118671;28;20455;-61
2023/06/11 07:00:16;;;;;;;9.43;8.63;;;25.80;99.90;;;;;;5118389;28;20567;-60
2023/06/11 07:02:45;;;;;;;10.40;7.50;;;25.90;99.90;;;;;;5118120;28;20469;-58
2023/06/11 07:05:13;;;;;;;9.37;8.57;;;26.10;99.90;;;;;;5118424;28;20494;-58
2023/06/11 07:07:40;;;;;;;8.47;7.87;;;26.40;99.90;;;;;;5118080;28;20463;-58
2023/06/11 07:10:08;;;;;;;8.57;7.77;;;26.60;99.90;;;;;;5118172;28;20557;-61
2023/06/11 07:12:35;;;;;;;8.97;8.27;;;26.80;99.90;;;;;;5118535;28;20889;-62
2023/06/11 07:15:05;;;;;;;7.83;7.13;;;26.90;99.90;;;;;;5118061;28;20899;-57
2023/06/11 07:17:33;;;;;;;8.83;8.13;;;26.90;99.90;;;;;;5117606;28;20868;-58
2023/06/11 07:20:01;;;;;;;8.67;7.47;;;26.90;99.90;;;;;;5117701;28;20562;-59
2023/06/11 07:22:28;;;;;;;8.73;7.93;;;27.00;89.20;;;;;;5118062;28;20593;-59
2023/06/11 07:24:56;;;;;;;8.97;8.27;;;26.80;58.00;;;;;;5117794;28;20466;-58
2023/06/11 07:27:23;;;;;;;7.40;6.90;;;26.90;39.30;;;;;;5117679;28;20916;-61
2023/06/11 07:29:51;;;;;;;8.47;7.57;;;26.90;33.10;;;;;;5115621;28;20499;-60
2023/06/11 07:32:19;;;;;;;8.23;7.63;;;27.20;47.20;;;;;;5117548;28;20784;-57
2023/06/11 07:34:47;;;;;;;8.03;7.43;;;27.40;21.90;;;;;;5118021;28;20467;-63
2023/06/11 07:37:14;;;;;;;8.50;7.80;;;27.20;12.10;;;;;;5118143;28;20787;-58
2023/06/11 07:39:41;;;;;;;7.90;7.20;;;27.30;2.90;;;;;;5117972;28;20516;-58
2023/06/11 07:42:08;;;;;;;8.50;7.73;;;27.40;1.00;;;;;;5117011;28;20434;-61
2023/06/11 07:44:36;;;;;;;8.73;8.03;;;27.20;1.00;;;;;;5117800;28;20961;-62
2023/06/11 07:47:03;;;;;;;7.93;7.30;;;27.20;1.00;;;;;;5117980;28;20487;-62
2023/06/11 07:49:31;;;;;;;9.10;8.40;;;27.40;1.00;;;;;;5117450;28;20542;-59
2023/06/11 07:51:59;;;;;;;7.97;7.47;;;27.60;1.00;;;;;;5117605;28;20459;-61
2023/06/11 07:54:26;;;;;;;8.00;7.40;;;27.80;1.00;;;;;;5117509;28;20466;-61
2023/06/11 07:56:53;;;;;;;8.10;7.60;;;27.90;1.00;;;;;;5117692;28;20455;-61
2023/06/11 07:59:21;;;;;;;7.77;7.20;;;28.00;1.00;;;;;;5117429;28;20506;-60
2023/06/11 08:01:48;;;;;;;8.07;7.57;;;28.00;1.00;;;;;;5117083;28;20943;-60
2023/06/11 08:04:15;;;;;;;8.87;8.07;;;28.00;1.00;;;;;;5117382;28;20466;-60
2023/06/11 08:06:44;;;;;;;7.73;7.20;;;28.10;1.00;;;;;;5117417;28;20491;-65
2023/06/11 08:09:11;;;;;;;7.60;7.10;;;28.40;1.00;;;;;;5117666;28;20460;-59
2023/06/11 08:11:41;;;;;;;7.70;7.10;;;28.70;1.00;;;;;;5114613;28;20480;-65
2023/06/11 08:14:10;;;;;;;10.30;7.30;;;28.60;1.00;;;;;;5115338;28;20512;-60
2023/06/11 08:16:37;;;;;;;8.00;7.30;;;28.80;1.00;;;;;;5115468;28;20550;-58
2023/06/11 08:19:04;;;;;;;8.20;7.60;;;29.10;1.00;;;;;;5116058;28;20720;-63
2023/06/11 08:21:32;;;;;;;8.70;8.13;;;29.10;1.00;;;;;;5115447;28;20888;-61
2023/06/11 08:24:00;;;;;;;6.97;6.40;;;29.10;1.00;;;;;;5113305;28;20716;-62
2023/06/11 08:26:27;;;;;;;8.93;7.50;;;29.20;1.00;;;;;;5115953;28;20566;-61
2023/06/11 08:28:54;;;;;;;7.70;6.90;;;29.30;1.00;;;;;;5116776;28;20475;-58
2023/06/11 08:31:22;;;;;;;7.17;6.57;;;29.10;1.00;;;;;;5116400;28;20464;-61
2023/06/11 08:33:49;;;;;;;8.00;7.20;;;29.10;1.00;;;;;;5117214;28;20466;-60
2023/06/11 08:36:16;;;;;;;8.77;8.13;;;29.30;1.00;;;;;;5116868;28;20459;-63
2023/06/11 08:38:45;;;;;;;7.17;6.67;;;29.50;1.00;;;;;;5117485;28;20467;-61
2023/06/11 08:41:14;;;;;;;6.70;6.23;;;29.60;1.00;;;;;;5117333;28;20464;-58
2023/06/11 08:43:42;;;;;;;7.43;6.93;;;29.60;1.00;;;;;;5117026;28;20486;-63
2023/06/11 08:46:14;;;;;;;6.97;6.30;;;29.80;1.00;;;;;;5116908;28;20955;-61
2023/06/11 08:48:43;;;;;;;7.77;7.17;;;30.00;1.00;;;;;;5116298;28;20749;-62
2023/06/11 08:51:11;;;;;;;7.90;7.20;;;30.00;1.00;;;;;;5117050;28;20455;-58
2023/06/11 08:53:39;;;;;;;7.03;6.53;;;30.10;1.00;;;;;;5117877;28;20460;-65
2023/06/11 08:56:07;;;;;;;6.97;6.27;;;30.50;1.00;;;;;;5120303;28;20462;-58
2023/06/11 08:58:37;;;;;;;7.57;7.07;;;30.70;1.00;;;;;;5120764;28;20509;-62
2023/06/11 09:01:09;;;;;;;7.30;6.67;;;30.80;1.00;;;;;;5121087;28;20849;-63
2023/06/11 09:03:37;;;;;;;6.70;6.20;;;31.00;1.00;;;;;;5120086;28;20491;-59
2023/06/11 09:06:05;;;;;;;7.10;6.60;;;31.10;1.00;;;;;;5120224;28;20497;-62
2023/06/11 09:08:32;;;;;;;7.07;6.33;;;31.30;1.00;;;;;;5120574;28;20499;-61
2023/06/11 09:11:00;;;;;;;7.17;6.67;;;31.00;1.00;;;;;;5120693;28;20736;-62
2023/06/11 09:13:28;;;;;;;6.60;6.20;;;30.90;1.00;;;;;;5120180;28;20512;-66
2023/06/11 09:15:57;;;;;;;7.17;6.67;;;30.90;1.00;;;;;;5120436;28;20456;-64
2023/06/11 09:18:26;;;;;;;8.00;7.50;;;31.00;1.00;;;;;;5120168;28;20761;-59
2023/06/11 09:20:54;;;;;;;7.40;6.80;;;30.70;1.00;;;;;;5120225;28;20516;-57
2023/06/11 09:23:26;;;;;;;7.60;7.00;;;30.40;1.00;;;;;;5119994;28;20463;-60
2023/06/11 09:25:53;;;;;;;6.63;6.23;;;30.40;1.00;;;;;;5120067;28;20491;-61
2023/06/11 09:28:21;;;;;;;7.63;7.13;;;30.30;99.90;;;;;;5120466;28;20463;-55
2023/06/11 09:30:56;;;;;;;7.70;6.60;;;30.40;1.00;;;;;;5120371;28;20459;-59
2023/06/11 09:33:24;;;;;;;7.93;6.63;;;30.40;99.90;;;;;;5118946;28;20827;-67
2023/06/11 09:35:51;;;;;;;6.77;6.27;;;30.50;99.90;;;;;;5120045;28;20885;-63
2023/06/11 09:38:20;;;;;;;7.20;6.70;;;30.80;1.00;;;;;;5119809;28;20550;-59
2023/06/11 09:40:48;;;;;;;8.30;7.07;;;31.00;1.00;;;;;;5120195;28;20463;-63
2023/06/11 09:43:19;;;;;;;7.80;6.60;;;31.20;1.00;;;;;;5119719;28;20466;-60
2023/06/11 09:45:48;;;;;;;7.47;6.87;;;31.40;1.00;;;;;;5119742;28;20470;-62
2023/06/11 09:48:17;;;;;;;7.47;6.87;;;31.60;1.00;;;;;;5118246;28;20471;-61
2023/06/11 09:50:45;;;;;;;7.33;6.80;;;31.80;1.00;;;;;;5117526;28;20470;-56
2023/06/11 09:53:14;;;;;;;8.60;7.47;;;32.10;1.00;;;;;;5117682;27;20886;-58
2023/06/11 09:55:43;;;;;;;9.37;7.13;;;32.30;1.00;;;;;;5117963;28;20487;-55
2023/06/11 09:58:13;;;;;;;7.37;6.77;;;32.40;1.00;;;;;;5118297;28;20455;-62
2023/06/11 10:00:41;;;;;;;7.23;6.70;;;32.70;1.00;;;;;;5118364;28;20494;-59
2023/06/11 10:03:08;;;;;;;7.33;6.67;;;32.80;1.00;;;;;;5117920;28;20489;-62
2023/06/11 10:05:37;;;;;;;6.63;6.13;;;32.70;1.00;;;;;;5118326;28;20470;-69
2023/06/11 10:08:12;;;;;;;7.87;7.27;;;32.60;1.00;;;;;;5118894;28;20586;-57
2023/06/11 10:10:42;;;;;;;6.63;6.07;;;32.60;1.00;;;;;;5118915;28;20501;-64
2023/06/11 10:13:11;;;;;;;7.43;6.73;;;32.40;1.00;;;;;;5119672;28;20459;-64
2023/06/11 10:15:39;;;;;;;7.37;6.67;;;32.40;1.00;;;;;;5119204;28;20510;-64
2023/06/11 10:18:14;;;;;;;7.87;7.37;;;32.50;1.00;;;;;;5119221;28;20490;-63
2023/06/11 10:20:54;;;;;;;8.07;7.37;;;32.50;1.00;;;;;;5119132;28;20564;-63
2023/06/11 10:23:22;;;;;;;9.03;7.40;;;32.60;1.00;;;;;;5118910;28;20545;-62
2023/06/11 10:25:56;;;;;;;6.43;5.93;;;32.70;99.90;;;;;;5118578;28;20491;-61
2023/06/11 10:28:35;;;;;;;8.03;7.40;;;33.00;1.00;;;;;;5118814;28;20459;-67
2023/06/11 10:31:03;;;;;;;7.67;7.07;;;33.20;1.00;;;;;;5118207;28;20454;-60
2023/06/11 10:33:44;;;;;;;7.50;7.00;;;33.20;1.00;;;;;;5118701;28;20459;-62
2023/06/11 10:36:24;;;;;;;7.20;6.50;;;33.10;1.00;;;;;;5118577;28;20455;-62
2023/06/11 10:38:52;;;;;;;7.80;7.10;;;33.20;1.00;;;;;;5099964;28;20474;-64
2023/06/11 10:41:30;;;;;;;8.13;7.33;;;33.10;1.00;;;;;;5107583;28;20810;-61
2023/06/11 10:43:58;;;;;;;7.23;6.63;;;33.10;1.00;;;;;;5104710;28;20753;-62
2023/06/11 10:46:25;;;;;;;7.87;7.27;;;33.10;1.00;;;;;;5113291;27;20490;-60
2023/06/11 10:48:54;;;;;;;7.70;7.10;;;33.40;1.00;;;;;;5114562;28;20467;-61
2023/06/11 10:51:23;;;;;;;7.37;6.80;;;33.40;1.00;;;;;;5113209;28;20825;-63
2023/06/11 10:53:59;;;;;;;6.90;6.40;;;33.50;1.00;;;;;;5118101;28;20558;-64
2023/06/11 10:56:27;;;;;;;7.40;6.83;;;33.90;1.00;;;;;;5118009;28;20454;-59
2023/06/11 10:58:55;;;;;;;7.70;7.10;;;33.60;1.00;;;;;;5117964;28;20458;-58
2023/06/11 11:01:23;;;;;;;7.60;6.90;;;33.50;1.00;;;;;;5116102;28;20470;-60
2023/06/11 11:03:51;;;;;;;8.47;7.77;;;33.50;99.90;;;;;;5116539;28;20494;-59
2023/06/11 11:06:28;;;;;;;8.33;7.63;;;33.50;1.00;;;;;;5110895;28;20484;-60
2023/06/11 11:08:56;;;;;;;8.37;7.87;;;33.30;1.00;;;;;;5116115;28;20466;-58
2023/06/11 11:11:24;;;;;;;7.77;7.13;;;33.50;1.00;;;;;;5115153;28;20467;-61
2023/06/11 11:13:52;;;;;;;6.97;6.47;;;33.50;1.00;;;;;;5117602;28;20467;-59
2023/06/11 11:16:20;;;;;;;8.03;7.53;;;33.50;99.90;;;;;;5108215;28;20860;-58
2023/06/11 11:18:49;;;;;;;7.53;6.83;;;33.50;1.00;;;;;;5098836;28;20466;-60
2023/06/11 11:21:16;;;;;;;8.20;7.60;;;33.60;99.90;;;;;;5096762;28;20472;-61
2023/06/11 11:23:48;;;;;;;8.00;7.30;;;33.80;1.00;;;;;;5112486;28;20466;-61
2023/06/11 11:26:16;;;;;;;9.57;7.50;;;33.80;1.00;;;;;;5112509;28;20969;-61
2023/06/11 11:28:53;;;;;;;7.50;7.00;;;33.80;1.00;;;;;;5108959;28;20522;-60
2023/06/11 11:31:30;;;;;;;7.30;6.77;;;34.30;1.00;;;;;;5112656;28;20470;-60
2023/06/11 11:33:58;;;;;;;7.80;7.20;;;34.50;1.00;;;;;;5109190;28;20466;-57
2023/06/11 11:36:25;;;;;;;7.80;7.20;;;34.50;1.00;;;;;;5108285;28;20502;-57
2023/06/11 11:38:55;;;;;;;7.50;6.80;;;34.40;1.00;;;;;;5109819;28;20471;-63
2023/06/11 11:41:24;;;;;;;7.43;6.73;;;34.50;1.00;;;;;;5101593;28;20472;-61
2023/06/11 11:43:53;;;;;;;7.70;7.00;;;34.60;1.00;;;;;;5111046;28;20475;-55
2023/06/11 11:46:23;;;;;;;8.07;7.47;;;34.80;1.00;;;;;;5106383;28;20567;-61
2023/06/11 11:48:55;;;;;;;7.57;6.90;;;34.60;1.00;;;;;;5117052;28;20458;-55
2023/06/11 11:51:23;;;;;;;8.50;7.80;;;34.80;1.00;;;;;;5113117;28;20481;-59
2023/06/11 11:53:54;;;;;;;7.87;7.23;;;34.80;1.00;;;;;;5110952;28;20897;-60
2023/06/11 11:56:21;;;;;;;8.43;7.63;;;34.80;1.00;;;;;;5110607;28;20471;-60
2023/06/11 11:58:54;;;;;;;8.63;7.90;;;34.50;1.00;;;;;;5115976;28;20897;-61
2023/06/11 12:01:27;;;;;;;8.90;7.10;;;34.50;1.00;;;;;;5115479;28;20467;-61
2023/06/11 12:03:58;;;;;;;8.90;6.83;;;34.40;1.00;;;;;;5114354;28;20983;-61
2023/06/11 12:06:25;;;;;;;9.07;8.37;;;34.30;1.00;;;;;;5116357;28;20864;-53
2023/06/11 12:08:54;;;;;;;8.20;7.70;;;34.40;1.00;;;;;;5116270;28;20461;-60
2023/06/11 12:11:21;;;;;;;8.43;7.73;;;34.00;1.00;;;;;;5112110;28;20467;-55
2023/06/11 12:13:48;;;;;;;8.57;7.87;;;33.90;1.00;;;;;;5114175;28;20488;-59
2023/06/11 12:16:15;;;;;;;9.23;8.43;;;33.90;1.00;;;;;;5114123;28;20502;-59
2023/06/11 12:18:42;;;;;;;8.70;8.00;;;33.80;1.00;;;;;;5114066;28;20464;-60
2023/06/11 12:21:10;;;;;;;8.27;7.70;;;34.30;1.00;;;;;;5113478;28;20475;-60
2023/06/11 12:23:38;;;;;;;8.70;8.10;;;34.80;1.00;;;;;;5119549;28;20548;-58
2023/06/11 12:26:07;;;;;;;7.93;7.33;;;35.40;1.00;;;;;;5118369;27;20470;-61
2023/06/11 12:28:36;;;;;;;7.27;6.57;;;35.20;1.00;;;;;;5113003;28;20510;-61
2023/06/11 12:31:04;;;;;;;8.50;7.90;;;34.90;1.00;;;;;;5118753;28;20467;-57
2023/06/11 12:33:31;;;;;;;10.03;7.97;;;34.80;1.00;;;;;;5120879;28;20760;-58
2023/06/11 12:35:58;;;;;;;7.97;7.47;;;35.30;1.00;;;;;;5118167;28;20474;-55
2023/06/11 12:38:26;;;;;;;9.27;7.33;;;35.00;1.00;;;;;;5120001;28;20447;-58
2023/06/11 12:40:53;;;;;;;8.30;7.70;;;35.00;1.00;;;;;;5119801;28;20945;-60
2023/06/11 12:43:21;;;;;;;11.70;10.87;;;35.20;1.00;;;;;;5118965;28;20458;-59
2023/06/11 12:45:49;;;;;;;8.30;7.70;;;35.50;1.00;;;;;;5118871;27;20643;-60
2023/06/11 12:48:16;;;;;;;7.00;6.50;;;35.80;1.00;;;;;;5112356;28;20265;-60
2023/06/11 12:50:43;;;;;;;8.10;7.50;;;36.10;1.00;;;;;;5110365;28;20751;-61
2023/06/11 12:53:11;;;;;;;8.43;7.82;;;36.50;1.00;;;;;;5103781;28;20305;-58
2023/06/11 12:55:38;;;;;;;7.53;7.03;;;36.10;1.00;;;;;;5120235;28;20212;-61
2023/06/11 12:58:05;;;;;;;8.70;8.10;;;35.50;1.00;;;;;;5118015;27;20457;-61